Calldetenes (Osona)





Hora UTC 21:45
Temperatura 24.3 ºC
Humedad 68.0 %
Presión 1014.2 hPa
Pluja 0.0 mm
Velocidad viento 0.0 km/h
Dirección viento

Datos diarios 2024-07-24



Hora UTC (invierno +1h; verano +2h)
Temperatura (ºC) Humedad (%) Presión (hPa) Velocidad viento (km/h) Precipitación (mm)
Hora UTC Aire Humedad Presión Vel. Dir. Vel. Max Dir. Intent. máx 5 min.
00:05 21.6 79.0 1018.4 0.0 0.0 0.0
00:15 21.4 80.0 1018.4 0.0 29.0 0.0
00:25 21.4 80.0 1018.3 1.6 29.0 0.0
00:35 21.2 80.0 1018.2 0.0 29.0 0.0
00:45 20.7 80.0 1018.2 0.0 29.0 0.0
00:55 20.6 82.0 1018.2 0.0 0.0 0.0
01:05 20.6 82.0 1018.1 0.0 0.0 0.0
01:15 20.3 82.0 1018.1 0.0 0.0 0.0
01:25 20.2 82.0 1018.2 0.0 0.0 0.0
01:35 20.2 83.0 1018.2 0.0 0.0 0.0
01:45 20.3 83.0 1018.2 0.0 0.0 0.0
01:55 20.3 83.0 1018.0 0.0 0.0 0.0
02:05 20.0 83.0 1017.9 0.0 0.0 0.0
02:15 19.9 83.0 1017.9 0.0 0.0 0.0
02:25 19.8 83.0 1017.8 0.0 0.0 0.0
02:35 19.8 84.0 1017.7 1.6 4.8 0.0
02:45 20.0 84.0 1017.7 0.0 4.8 0.0
02:55 19.8 83.0 1017.7 0.0 4.8 0.0
03:05 19.5 83.0 1017.5 0.0 4.8 0.0
03:15 19.3 84.0 1017.5 0.0 4.8 0.0
03:25 19.1 84.0 1017.4 0.0 4.8 0.0
03:35 18.8 85.0 1017.5 0.0 4.8 0.0
03:45 18.4 85.0 1017.5 0.0 4.8 0.0
03:55 18.2 85.0 1017.5 0.0 4.8 0.0
04:05 18.1 86.0 1017.6 1.6 6.4 0.0
04:15 18.0 86.0 1017.6 1.6 6.4 0.0
04:25 17.9 85.0 1017.6 0.0 6.4 0.0
04:45 18.1 86.0 1017.6 0.0 6.4 0.0
04:55 18.3 86.0 1017.5 1.6 6.4 0.0
05:05 18.4 86.0 1017.5 0.0 6.4 0.0
05:15 18.5 86.0 1017.5 1.6 6.4 0.0
05:25 18.7 86.0 1017.6 3.2 8.0 0.0
05:35 18.8 86.0 1017.6 1.6 8.0 0.0
05:45 18.9 86.0 1017.6 0.0 8.0 0.0
05:55 19.1 86.0 1017.5 0.0 8.0 0.0
06:05 19.3 86.0 1017.5 0.0 8.0 0.0
06:15 19.5 85.0 1017.5 0.0 8.0 0.0
06:25 19.7 85.0 1017.6 0.0 8.0 0.0
06:35 20.0 84.0 1017.5 0.0 8.0 0.0
06:45 20.6 82.0 1017.6 0.0 8.0 0.0
06:55 20.9 81.0 1017.5 0.0 8.0 0.0
07:05 21.4 79.0 1017.5 1.6 8.0 0.0
07:15 21.7 78.0 1017.5 1.6 8.0 0.0
07:25 22.1 77.0 1017.4 1.6 8.0 0.0
07:35 22.5 76.0 1017.4 0.0 8.0 0.0
07:45 23.0 74.0 1017.3 0.0 8.0 0.0
07:55 23.7 72.0 1017.2 0.0 8.0 0.0
08:05 24.3 69.0 1017.2 0.0 8.0 0.0
08:15 24.7 67.0 1017.0 0.0 8.0 0.0
08:25 25.5 65.0 1016.9 0.0 8.0 0.0
08:35 26.5 61.0 1016.8 0.0 8.0 0.0
08:45 27.2 57.0 1016.7 0.0 8.0 0.0
08:55 28.2 53.0 1016.6 1.6 8.0 0.0
09:05 29.1 49.0 1016.5 3.2 11.3 0.0
09:15 29.6 47.0 1016.3 4.8 11.3 0.0
09:25 30.0 46.0 1016.2 3.2 14.5 0.0
09:35 30.1 46.0 1016.1 4.8 14.5 0.0
09:45 30.2 43.0 1016.0 6.4 14.5 0.0
09:55 30.2 44.0 1016.0 1.6 14.5 0.0
10:05 31.0 41.0 1015.9 4.8 14.5 0.0
10:15 31.6 39.0 1015.7 4.8 14.5 0.0
10:25 31.9 38.0 1015.6 1.6 14.5 0.0
10:35 31.9 38.0 1015.5 8.0 25.7 0.0
10:45 32.0 37.0 1015.4 6.4 25.7 0.0
10:55 32.1 37.0 1015.3 9.7 25.7 0.0
11:05 32.3 37.0 1015.2 8.0 25.7 0.0
11:15 32.4 36.0 1015.1 3.2 25.7 0.0
11:25 32.4 36.0 1015.1 8.0 27.4 0.0
11:35 32.6 38.0 1015.0 6.4 27.4 0.0
11:45 32.9 36.0 1014.9 14.5 27.4 0.0
11:55 33.1 35.0 1014.8 4.8 27.4 0.0
12:05 33.1 35.0 1014.6 9.7 27.4 0.0
12:15 33.3 33.0 1014.4 9.7 27.4 0.0
12:25 33.3 34.0 1014.3 8.0 27.4 0.0
12:35 33.5 33.0 1014.2 11.3 27.4 0.0
12:45 33.7 33.0 1014.1 6.4 27.4 0.0
12:55 33.9 35.0 1014.0 9.7 27.4 0.0
13:05 34.2 36.0 1013.9 8.0 27.4 0.0
13:15 33.9 38.0 1013.9 12.9 30.6 0.0
13:25 34.1 37.0 1013.8 11.3 30.6 0.0
13:35 33.8 36.0 1013.7 6.4 30.6 0.0
13:45 33.8 38.0 1013.5 14.5 30.6 0.0
13:55 33.8 38.0 1013.4 14.5 30.6 0.0
14:05 33.8 37.0 1013.4 14.5 30.6 0.0
14:15 33.8 43.0 1013.5 11.3 30.6 0.0
14:25 33.6 44.0 1013.2 6.4 30.6 0.0
14:35 33.6 43.0 1013.3 8.0 30.6 0.0
14:45 33.6 42.0 1013.2 6.4 30.6 0.0
14:55 33.8 41.0 1013.2 6.4 30.6 0.0
15:05 33.2 42.0 1013.2 6.4 30.6 0.0
15:15 32.8 42.0 1013.1 6.4 30.6 0.0
15:25 32.3 44.0 1013.1 4.8 30.6 0.0
15:35 31.8 45.0 1013.2 4.8 30.6 0.0
15:45 31.7 45.0 1013.0 3.2 30.6 0.0
15:55 31.7 47.0 1013.0 3.2 30.6 0.0
16:05 32.1 46.0 1013.0 4.8 30.6 0.0
16:15 31.9 45.0 1012.9 14.5 30.6 0.0
16:25 31.9 45.0 1012.9 9.7 30.6 0.0
16:35 31.7 46.0 1012.9 12.9 30.6 0.0
16:45 31.6 46.0 1012.8 11.3 30.6 0.0
16:55 31.3 46.0 1012.9 4.8 30.6 0.0
17:05 31.3 45.0 1012.9 6.4 30.6 0.0
17:15 31.3 45.0 1012.9 6.4 30.6 0.0
17:25 31.3 46.0 1013.0 8.0 30.6 0.0
17:35 30.8 48.0 1013.0 4.8 30.6 0.0
17:45 30.4 48.0 1013.0 0.0 30.6 0.0
17:55 30.1 53.0 1013.0 1.6 30.6 0.0
18:05 30.2 50.0 1013.1 1.6 30.6 0.0
18:15 29.7 50.0 1013.2 3.2 30.6 0.0
18:25 29.3 51.0 1013.3 4.8 30.6 0.0
18:35 28.9 52.0 1013.3 6.4 30.6 0.0
18:45 28.6 52.0 1013.4 9.7 30.6 0.0
18:55 28.2 53.0 1013.5 9.7 30.6 0.0
19:05 27.9 54.0 1013.5 6.4 30.6 0.0
19:15 27.7 55.0 1013.6 8.0 30.6 0.0
19:25 27.5 56.0 1013.6 3.2 30.6 0.0
19:35 27.2 57.0 1013.8 4.8 30.6 0.0
19:45 26.8 59.0 1013.8 4.8 30.6 0.0
19:55 26.6 60.0 1013.8 3.2 30.6 0.0
20:05 26.4 60.0 1013.9 1.6 30.6 0.0
20:15 26.2 60.0 1014.0 6.4 30.6 0.0
20:25 26.0 61.0 1014.0 4.8 30.6 0.0
20:35 25.8 61.0 1014.1 3.2 30.6 0.0
20:45 25.7 62.0 1014.1 4.8 30.6 0.0
20:55 25.5 63.0 1014.1 3.2 30.6 0.0
21:05 25.4 63.0 1014.1 0.0 30.6 0.0
21:15 25.2 65.0 1014.2 0.0 30.6 0.0
21:25 24.9 65.0 1014.1 0.0 30.6 0.0
21:35 24.7 66.0 1014.1 0.0 30.6 0.0
21:45 24.3 68.0 1014.2 0.0 30.6 0.0
Máxima 34.2 86.0 1018.4 14.5 30.6 0.0
Mínima 17.9 33.0 1012.8
Total 0.0